Česky Dansk Deutsch English Español Suomi Français Magyar Italiano Nederlands norsk Polski Português svenska Türkçe

 

Het Weer

Warszawa-Okecie (Polen)

17:30, 22 augustus 2016 (GMT)

NWNNE
WE
SWSSE
Home            
Warszawa-Okecie Brest Rzeszow-Jasionka Krakow Katowice Grodno Poznan Kaliningrad/Khrabrovo Airport Gdansk-Rebiechowo Wroclaw Ii L'Viv Ostrava / Mosnov Poprad / Tatry Kaunas Dolny Hricov Slupsk Kamenica Nad Cirochou Zielona Gora Vilnius Kosice Kosice, Barca Koszalin Holesov

Om een weerknop op uw website of weblog te plaatsen, copieer onderstaande code en plak die in uw pagina. In het eerste vakje staat HTML-code, in het tweede vakje UBB-code.


Add to Google

Details

Wind speed:2 bf, 5 kn, 2.6 m/s, 5.8 miles/h, 9.3 km/h
Wind direction:NW, 320°
Visibility:Greater than 10000 m, 10 km, 32800 ft, 6.2 miles
Clouds:Ein wenig bewölkt at 2600 ft, 792 m
Temperature:19°C, 66°F
Dew-point:14°C, 57°F
Atmospheric pressure:1024 hPa, 768.1 mmHg, 30.24 inHg, 1.011 atm
Relative humidity:72.8 %
METAR:EPWA 221730Z 32005KT 9999 FEW026 19/14 Q1024 NOSIG

Snelkoppelingen

Actuele weersinformatie van de hele wereld. Voeg locaties toe met het plus (+) symbool. Deze snelkoppelingen kunnen worden toegevoegd aan Google.

Lid van de Technetium groep

website free tracking
StatCounter NetStat W3C Validator

28-11-2020 11:01:25
astro.technetium.be money.technetium.be phote.technetium.be tafeltennistafel.technetium.be www.ligfiets.net